createdAt,value
2023-04-19T00:00:52.214Z,98072.31
2023-04-19T00:03:20.667Z,98067.09
2023-04-19T00:05:49.025Z,98061.09
2023-04-19T00:08:18.665Z,98061.25
2023-04-19T00:10:46.926Z,98058.56
2023-04-19T00:13:15.285Z,98063.19
2023-04-19T00:15:43.588Z,98061.38
2023-04-19T00:18:11.873Z,98050.75
2023-04-19T00:20:40.596Z,98058.72
2023-04-19T00:23:11.018Z,98051.75
2023-04-19T00:25:40.917Z,98054.25
2023-04-19T00:28:14.625Z,98059.72
2023-04-19T00:30:42.888Z,98050.91
2023-04-19T00:33:13.149Z,98057.22
2023-04-19T00:35:42.695Z,98045.72
2023-04-19T00:38:10.986Z,98045.03
2023-04-19T00:40:40.705Z,98049.69
2023-04-19T00:43:08.938Z,98036.25
2023-04-19T00:45:37.896Z,98034.41
2023-04-19T00:48:06.827Z,98035.41
2023-04-19T00:50:39.019Z,98030.06
2023-04-19T00:53:08.570Z,98029.22
2023-04-19T00:55:38.702Z,98024.06
2023-04-19T00:58:10.034Z,98020.03
2023-04-19T01:00:39.013Z,98021.53
2023-04-19T01:03:08.928Z,98013.56
2023-04-19T01:05:37.487Z,98012.06
2023-04-19T01:08:06.262Z,98009.69
2023-04-19T01:10:34.554Z,98013.34
2023-04-19T01:13:02.986Z,98005.53
2023-04-19T01:15:33.161Z,98010.00
2023-04-19T01:18:02.154Z,98004.69
2023-04-19T01:20:30.554Z,98011.00
2023-04-19T01:23:00.194Z,98007.63
2023-04-19T01:25:37.139Z,97997.31
2023-04-19T01:28:05.973Z,97986.13
2023-04-19T01:30:34.463Z,97984.75
2023-04-19T01:33:05.631Z,97989.06
2023-04-19T01:35:34.004Z,97994.69
2023-04-19T01:38:03.705Z,97989.53
2023-04-19T01:40:32.020Z,97992.50
2023-04-19T01:43:02.896Z,97987.47
2023-04-19T01:45:33.214Z,97981.63
2023-04-19T01:48:02.967Z,97974.25
2023-04-19T01:50:31.343Z,97979.00
2023-04-19T01:53:00.141Z,97977.50
2023-04-19T01:55:30.590Z,97974.97
2023-04-19T01:57:59.003Z,97972.63
2023-04-19T02:00:27.354Z,97980.72
2023-04-19T02:02:55.765Z,97976.56
2023-04-19T02:05:24.409Z,97975.00
2023-04-19T02:07:55.584Z,97975.44
2023-04-19T02:10:24.247Z,97975.75
2023-04-19T02:12:53.952Z,97962.91
2023-04-19T02:15:22.454Z,97964.34
2023-04-19T02:17:51.092Z,97968.28
2023-04-19T02:20:19.677Z,97960.75
2023-04-19T02:22:48.336Z,97969.84
2023-04-19T02:25:17.195Z,97959.09
2023-04-19T02:27:45.480Z,97956.75
2023-04-19T02:30:15.925Z,97958.78
2023-04-19T02:32:52.299Z,97966.38
2023-04-19T02:35:20.932Z,97964.00
2023-04-19T02:37:49.486Z,97963.44
2023-04-19T02:40:18.072Z,97955.91
2023-04-19T02:42:46.511Z,97959.16
2023-04-19T02:45:16.342Z,97959.56
2023-04-19T02:47:46.722Z,97953.88
2023-04-19T02:50:17.101Z,97949.81
2023-04-19T02:52:45.454Z,97946.78
2023-04-19T02:55:13.811Z,97945.34
2023-04-19T02:57:42.146Z,97941.31
2023-04-19T03:00:12.499Z,97939.94
2023-04-19T03:02:47.175Z,97936.88
2023-04-19T03:05:15.665Z,97937.16
2023-04-19T03:07:44.706Z,97925.16
2023-04-19T03:10:13.247Z,97927.25
2023-04-19T03:12:41.596Z,97930.19
2023-04-19T03:15:11.949Z,97934.09
2023-04-19T03:17:41.701Z,97929.50
2023-04-19T03:20:11.799Z,97924.34
2023-04-19T03:22:40.321Z,97926.44
2023-04-19T03:25:12.470Z,97921.53
2023-04-19T03:27:40.931Z,97925.59
2023-04-19T03:30:13.626Z,97921.41
2023-04-19T03:32:43.348Z,97921.84
2023-04-19T03:35:11.919Z,97915.13
2023-04-19T03:37:40.207Z,97914.44
2023-04-19T03:40:12.518Z,97917.50
2023-04-19T03:42:40.810Z,97908.16
2023-04-19T03:45:10.659Z,97912.88
2023-04-19T03:47:41.761Z,97907.00
2023-04-19T03:50:12.047Z,97905.59
2023-04-19T03:52:40.522Z,97907.41
2023-04-19T03:55:12.266Z,97905.03
2023-04-19T03:57:40.962Z,97906.28
2023-04-19T04:00:11.620Z,97898.63
2023-04-19T04:02:40.510Z,97899.16
2023-04-19T04:05:09.685Z,97905.44
2023-04-19T04:07:42.445Z,97904.03
2023-04-19T04:10:11.270Z,97898.06
2023-04-19T04:12:42.147Z,97908.06
2023-04-19T04:15:12.031Z,97905.81
2023-04-19T04:17:40.391Z,97904.44
2023-04-19T04:20:11.937Z,97907.22
2023-04-19T04:22:43.957Z,97908.59
2023-04-19T04:25:12.617Z,97913.91
2023-04-19T04:27:41.507Z,97913.31
2023-04-19T04:30:14.071Z,97917.75
2023-04-19T04:32:42.500Z,97906.63
2023-04-19T04:35:12.239Z,97920.94
2023-04-19T04:37:41.950Z,97912.47
2023-04-19T04:40:12.071Z,97918.00
2023-04-19T04:42:40.867Z,97907.97
2023-04-19T04:45:13.114Z,97919.38
2023-04-19T04:47:41.477Z,97917.81
2023-04-19T04:50:11.163Z,97916.31
2023-04-19T04:52:39.521Z,97911.97
2023-04-19T04:55:11.104Z,97914.88
2023-04-19T04:57:42.674Z,97910.00
2023-04-19T05:00:12.740Z,97905.66
2023-04-19T05:02:41.367Z,97912.78
2023-04-19T05:05:11.259Z,97912.06
2023-04-19T05:07:45.921Z,97903.28
2023-04-19T05:10:15.712Z,97904.25
2023-04-19T05:12:44.052Z,97902.59
2023-04-19T05:15:13.020Z,97889.38
2023-04-19T05:17:43.170Z,97887.53
2023-04-19T05:20:12.264Z,97888.41
2023-04-19T05:22:40.624Z,97890.19
2023-04-19T05:25:11.698Z,97901.34
2023-04-19T05:27:41.573Z,97900.38
2023-04-19T05:30:13.368Z,97892.16
2023-04-19T05:32:44.889Z,97902.50
2023-04-19T05:35:13.290Z,97892.63
2023-04-19T05:37:44.475Z,97888.00
2023-04-19T05:40:13.866Z,97881.63
2023-04-19T05:42:43.750Z,97874.25
2023-04-19T05:45:15.646Z,97876.50
2023-04-19T05:47:44.053Z,97876.09
2023-04-19T05:50:12.880Z,97879.19
2023-04-19T05:52:41.231Z,97873.34
2023-04-19T05:55:10.191Z,97878.22
2023-04-19T05:57:38.616Z,97876.69
2023-04-19T06:00:14.572Z,97860.53
2023-04-19T06:02:44.755Z,97872.13
2023-04-19T06:05:13.580Z,97881.34
2023-04-19T06:07:54.617Z,97873.81
2023-04-19T06:10:24.906Z,97863.06
2023-04-19T06:12:54.192Z,97854.56
2023-04-19T06:15:25.965Z,97861.97
2023-04-19T06:17:54.358Z,97861.44
2023-04-19T06:20:25.761Z,97859.38
2023-04-19T06:22:54.078Z,97857.97
2023-04-19T06:25:22.677Z,97868.84
2023-04-19T06:27:51.011Z,97858.78
2023-04-19T06:30:21.482Z,97864.38
2023-04-19T06:32:51.441Z,97859.34
2023-04-19T06:35:22.829Z,97849.00
2023-04-19T06:37:52.019Z,97853.44
2023-04-19T06:40:20.858Z,97852.06
2023-04-19T06:42:49.310Z,97848.13
2023-04-19T06:45:17.841Z,97850.75
2023-04-19T06:47:48.979Z,97846.13
2023-04-19T06:50:18.810Z,97851.44
2023-04-19T06:52:47.122Z,97840.25
2023-04-19T06:55:15.425Z,97841.31
2023-04-19T06:57:43.757Z,97837.94
2023-04-19T07:00:13.951Z,97835.22
2023-04-19T07:02:50.417Z,97831.69
2023-04-19T07:05:20.258Z,97837.13
2023-04-19T07:07:48.745Z,97828.28
2023-04-19T07:10:17.542Z,97828.53
2023-04-19T07:12:57.806Z,97822.31
2023-04-19T07:15:26.160Z,97826.22
2023-04-19T07:17:54.484Z,97820.44
2023-04-19T07:20:24.433Z,97818.16
2023-04-19T07:22:52.830Z,97804.88
2023-04-19T07:25:21.222Z,97812.94
2023-04-19T07:27:49.586Z,97813.31
2023-04-19T07:30:17.947Z,97819.00
2023-04-19T07:32:49.225Z,97822.03
2023-04-19T07:35:17.616Z,97812.78
2023-04-19T07:37:47.353Z,97808.81
2023-04-19T07:40:15.834Z,97811.00
2023-04-19T07:42:44.602Z,97807.25
2023-04-19T07:45:14.592Z,97811.94
2023-04-19T07:47:44.157Z,97803.81
2023-04-19T07:50:15.485Z,97806.00
2023-04-19T07:52:43.746Z,97807.50
2023-04-19T07:55:13.386Z,97800.22
2023-04-19T07:57:46.107Z,97807.06
2023-04-19T08:00:15.607Z,97808.56
2023-04-19T08:02:45.963Z,97806.59
2023-04-19T08:05:17.117Z,97799.16
2023-04-19T08:07:45.900Z,97797.16
2023-04-19T08:10:16.304Z,97793.38
2023-04-19T08:12:53.583Z,97803.72
2023-04-19T08:18:04.933Z,97796.09
2023-04-19T08:20:33.629Z,97783.50
2023-04-19T08:23:10.861Z,97782.50
2023-04-19T08:25:48.108Z,97781.31
2023-04-19T08:28:19.491Z,97789.00
2023-04-19T08:30:47.892Z,97784.69
2023-04-19T08:33:16.309Z,97779.03
2023-04-19T08:35:46.779Z,97778.88
2023-04-19T08:38:15.392Z,97778.88
2023-04-19T08:40:52.963Z,97785.72
2023-04-19T08:43:21.998Z,97776.75
2023-04-19T08:45:51.922Z,97774.09
2023-04-19T08:48:20.334Z,97768.63
2023-04-19T08:51:03.554Z,97767.63
2023-04-19T08:53:36.606Z,97774.59
2023-04-19T08:56:18.030Z,97770.44
2023-04-19T08:59:15.734Z,97770.75
2023-04-19T09:01:46.956Z,97764.25
2023-04-19T09:04:35.750Z,97774.72
2023-04-19T09:07:04.186Z,97769.88
2023-04-19T09:09:42.863Z,97762.06
2023-04-19T09:12:19.445Z,97761.38
2023-04-19T09:17:25.769Z,97765.03
2023-04-19T09:19:54.114Z,97753.53
2023-04-19T09:22:22.529Z,97757.88
2023-04-19T09:27:35.660Z,97755.19
2023-04-19T09:30:06.522Z,97759.72
2023-04-19T09:32:49.534Z,97749.06
2023-04-19T09:35:18.398Z,97750.03
2023-04-19T09:40:32.412Z,97748.69
2023-04-19T09:43:23.109Z,97744.06
2023-04-19T09:45:51.671Z,97751.19
2023-04-19T09:48:25.045Z,97745.72
2023-04-19T09:51:01.961Z,97748.38
2023-04-19T09:53:39.909Z,97740.41
2023-04-19T09:56:12.873Z,97745.22
2023-04-19T09:58:51.238Z,97743.22
2023-04-19T10:01:23.478Z,97736.38
2023-04-19T10:03:56.235Z,97733.59
2023-04-19T10:09:02.005Z,97731.78
2023-04-19T10:11:38.526Z,97731.78
2023-04-19T10:14:10.043Z,97729.28
2023-04-19T10:16:40.086Z,97720.41
2023-04-19T10:19:11.870Z,97724.75
2023-04-19T10:21:41.481Z,97725.59
2023-04-19T10:24:10.672Z,97719.44
2023-04-19T10:27:12.151Z,97722.38
2023-04-19T10:30:01.901Z,97721.72
2023-04-19T10:32:39.546Z,97720.03
2023-04-19T10:35:13.449Z,97720.19
2023-04-19T10:38:09.154Z,97719.22
2023-04-19T10:40:57.744Z,97703.28
2023-04-19T10:43:27.513Z,97703.94
2023-04-19T10:46:02.065Z,97709.25
2023-04-19T10:48:41.903Z,97705.63
2023-04-19T10:51:16.686Z,97697.81
2023-04-19T10:53:46.950Z,97690.63
2023-04-19T10:56:16.232Z,97692.84
2023-04-19T10:59:22.329Z,97690.03
2023-04-19T11:01:56.024Z,97685.25
2023-04-19T11:05:14.420Z,97680.75
2023-04-19T11:07:46.637Z,97674.28
2023-04-19T11:10:17.871Z,97674.63
2023-04-19T11:12:46.213Z,97671.00
2023-04-19T11:15:14.518Z,97677.66
2023-04-19T11:18:00.782Z,97673.19
2023-04-19T11:20:37.517Z,97664.19
2023-04-19T11:23:18.128Z,97663.19
2023-04-19T11:25:48.498Z,97658.06
2023-04-19T11:28:21.680Z,97649.78
2023-04-19T11:30:51.151Z,97645.13
2023-04-19T11:33:24.901Z,97655.63
2023-04-19T11:35:56.496Z,97648.44
2023-04-19T11:38:24.813Z,97645.78
2023-04-19T11:41:01.210Z,97650.13
2023-04-19T11:43:34.667Z,97646.63
2023-04-19T11:46:07.333Z,97657.44
2023-04-19T11:48:40.168Z,97655.78
2023-04-19T11:51:11.586Z,97640.78
2023-04-19T11:53:41.770Z,97662.50
2023-04-19T11:56:10.967Z,97668.44
2023-04-19T11:58:44.654Z,97670.22
2023-04-19T12:01:15.349Z,97673.81
2023-04-19T12:03:48.308Z,97665.06
2023-04-19T12:06:19.138Z,97681.31
2023-04-19T12:08:52.400Z,97680.94
2023-04-19T12:11:24.404Z,97685.06
2023-04-19T12:14:13.773Z,97680.34
2023-04-19T12:16:45.412Z,97674.88
2023-04-19T12:19:17.907Z,97677.78
2023-04-19T12:21:47.319Z,97685.88
2023-04-19T12:24:17.555Z,97685.00
2023-04-19T12:26:58.042Z,97688.63
2023-04-19T12:29:28.521Z,97686.28
2023-04-19T12:31:56.856Z,97684.47
2023-04-19T12:34:26.512Z,97691.22
2023-04-19T12:36:54.789Z,97690.53
2023-04-19T12:39:23.229Z,97688.19
2023-04-19T12:41:51.523Z,97689.03
2023-04-19T12:44:19.826Z,97689.19
2023-04-19T12:46:50.830Z,97690.19
2023-04-19T12:49:20.931Z,97685.03
2023-04-19T12:51:50.757Z,97690.03
2023-04-19T12:54:19.026Z,97685.69
2023-04-19T12:56:48.920Z,97682.88
2023-04-19T12:59:17.384Z,97682.72
2023-04-19T13:01:45.897Z,97678.41
2023-04-19T13:04:14.409Z,97668.44
2023-04-19T13:06:48.925Z,97680.22
2023-04-19T13:09:19.066Z,97670.28
2023-04-19T13:11:47.454Z,97669.44
2023-04-19T13:14:15.981Z,97667.25
2023-04-19T13:16:44.414Z,97662.09
2023-04-19T13:19:12.692Z,97662.94
2023-04-19T13:21:43.925Z,97662.94
2023-04-19T13:24:12.207Z,97666.44
2023-04-19T13:26:49.003Z,97666.44
2023-04-19T13:29:20.320Z,97662.94
2023-04-19T13:31:49.559Z,97669.25
2023-04-19T13:34:18.877Z,97671.91
2023-04-19T13:36:49.795Z,97663.09
2023-04-19T13:39:18.081Z,97670.22
2023-04-19T13:41:47.719Z,97663.09
2023-04-19T13:44:16.177Z,97660.28
2023-04-19T13:46:44.662Z,97654.97
2023-04-19T13:49:13.146Z,97648.50
2023-04-19T13:51:50.997Z,97652.47
2023-04-19T13:54:22.476Z,97649.13
2023-04-19T13:56:52.525Z,97648.47
2023-04-19T13:59:21.173Z,97644.97
2023-04-19T14:01:56.120Z,97647.63
2023-04-19T14:04:25.154Z,97642.78
2023-04-19T14:06:53.725Z,97643.75
2023-04-19T14:09:22.155Z,97641.91
2023-04-19T14:12:00.604Z,97641.13
2023-04-19T14:14:32.441Z,97634.97
2023-04-19T14:17:00.888Z,97644.72
2023-04-19T14:19:29.247Z,97635.81
2023-04-19T14:22:07.076Z,97634.66
2023-04-19T14:24:35.412Z,97639.97
2023-04-19T14:27:10.848Z,97644.13
2023-04-19T14:29:40.319Z,97636.31
2023-04-19T14:32:25.293Z,97638.50
2023-04-19T14:34:56.058Z,97644.50
2023-04-19T14:37:28.348Z,97635.53
2023-04-19T14:39:56.778Z,97633.59
2023-04-19T14:42:29.232Z,97634.56
2023-04-19T14:45:00.281Z,97628.97
2023-04-19T14:47:30.885Z,97616.66
2023-04-19T14:49:59.251Z,97611.81
2023-04-19T14:52:27.640Z,97610.69
2023-04-19T14:54:57.522Z,97614.00
2023-04-19T14:57:25.986Z,97608.19
2023-04-19T14:59:58.465Z,97598.84
2023-04-19T15:02:32.425Z,97608.50
2023-04-19T15:05:01.249Z,97611.44
2023-04-19T15:07:31.352Z,97616.06
2023-04-19T15:10:00.335Z,97613.41
2023-04-19T15:12:35.778Z,97608.09
2023-04-19T15:15:07.064Z,97606.44
2023-04-19T15:17:35.878Z,97603.94
2023-04-19T15:20:05.707Z,97608.56
2023-04-19T15:22:43.253Z,97604.09
2023-04-19T15:25:12.019Z,97605.38
2023-04-19T15:27:40.690Z,97609.88
2023-04-19T15:30:12.378Z,97606.38
2023-04-19T15:32:42.473Z,97605.66
2023-04-19T15:35:12.725Z,97602.84
2023-04-19T15:37:43.958Z,97605.38
2023-04-19T15:40:14.504Z,97610.81
2023-04-19T15:42:48.478Z,97611.81
2023-04-19T15:45:18.810Z,97616.84
2023-04-19T15:47:50.106Z,97611.81
2023-04-19T15:50:18.468Z,97612.78
2023-04-19T15:52:46.790Z,97617.72
2023-04-19T15:55:15.158Z,97632.59
2023-04-19T15:57:43.989Z,97633.09
2023-04-19T16:00:13.450Z,97624.16
2023-04-19T16:02:47.985Z,97622.78
2023-04-19T16:05:19.745Z,97625.28
2023-04-19T16:07:48.177Z,97628.09
2023-04-19T16:10:16.539Z,97634.00
2023-04-19T16:12:50.342Z,97629.69
2023-04-19T16:15:18.867Z,97628.34
2023-04-19T16:17:48.594Z,97638.09
2023-04-19T16:20:20.556Z,97641.75
2023-04-19T16:22:54.677Z,97637.44
2023-04-19T16:25:23.028Z,97634.09
2023-04-19T16:27:51.892Z,97645.84
2023-04-19T16:30:20.218Z,97636.22
2023-04-19T16:32:56.035Z,97636.50
2023-04-19T16:35:24.905Z,97638.66
2023-04-19T16:37:55.877Z,97635.31
2023-04-19T16:40:25.732Z,97638.09
2023-04-19T16:42:57.716Z,97632.94
2023-04-19T16:45:26.339Z,97636.44
2023-04-19T16:47:56.153Z,97640.34
2023-04-19T16:50:24.601Z,97640.50
2023-04-19T16:53:01.874Z,97645.97
2023-04-19T16:55:30.200Z,97651.25
2023-04-19T16:57:58.648Z,97641.66
2023-04-19T17:00:26.996Z,97642.63
2023-04-19T17:02:59.506Z,97641.78
2023-04-19T17:05:27.952Z,97648.75
2023-04-19T17:07:56.947Z,97645.44
2023-04-19T17:10:26.039Z,97646.25
2023-04-19T17:13:03.520Z,97647.25
2023-04-19T17:15:31.958Z,97643.59
2023-04-19T17:18:01.663Z,97642.63
2023-04-19T17:20:29.987Z,97635.34
2023-04-19T17:23:06.368Z,97638.00
2023-04-19T17:25:34.704Z,97634.25
2023-04-19T17:28:03.158Z,97639.38
2023-04-19T17:30:34.048Z,97639.38
2023-04-19T17:33:09.858Z,97642.72
2023-04-19T17:35:38.303Z,97647.06
2023-04-19T17:38:06.598Z,97644.25
2023-04-19T17:40:34.901Z,97649.69
2023-04-19T17:43:08.622Z,97642.72
2023-04-19T17:45:37.505Z,97649.00
2023-04-19T17:48:07.955Z,97652.66
2023-04-19T17:50:36.473Z,97643.00
2023-04-19T17:53:07.527Z,97640.50
2023-04-19T17:55:40.853Z,97648.47
2023-04-19T17:58:09.219Z,97642.34
2023-04-19T18:00:38.016Z,97644.28
2023-04-19T18:03:16.153Z,97649.91
2023-04-19T18:05:50.222Z,97649.91
2023-04-19T18:08:18.613Z,97660.50
2023-04-19T18:11:03.894Z,97649.06
2023-04-19T18:13:32.267Z,97647.41
2023-04-19T18:16:00.861Z,97650.34
2023-04-19T18:18:33.090Z,97660.81
2023-04-19T18:21:16.608Z,97660.09
2023-04-19T18:23:45.077Z,97659.44
2023-04-19T18:26:13.360Z,97666.00
2023-04-19T18:28:45.297Z,97667.13
2023-04-19T18:31:13.676Z,97672.59
2023-04-19T18:33:43.520Z,97670.09
2023-04-19T18:36:17.901Z,97674.16
2023-04-19T18:38:52.043Z,97671.66
2023-04-19T18:41:20.571Z,97680.75
2023-04-19T18:44:18.388Z,97669.88
2023-04-19T18:46:39.931Z,97666.53
2023-04-19T18:49:15.517Z,97664.19
2023-04-19T18:52:03.134Z,97676.75
2023-04-19T18:54:31.484Z,97677.06
2023-04-19T18:57:21.770Z,97674.69
2023-04-19T18:59:52.964Z,97672.47
2023-04-19T19:02:23.585Z,97679.59
2023-04-19T19:04:58.612Z,97681.53
2023-04-19T19:07:36.844Z,97675.00
2023-04-19T19:10:18.469Z,97679.22
2023-04-19T19:12:50.234Z,97674.75
2023-04-19T19:15:19.125Z,97676.69
2023-04-19T19:17:49.690Z,97674.47
2023-04-19T19:20:26.055Z,97682.72
2023-04-19T19:22:54.803Z,97683.97
2023-04-19T19:25:23.819Z,97686.78
2023-04-19T19:30:34.018Z,97687.06
2023-04-19T19:33:06.274Z,97699.59
2023-04-19T19:35:36.053Z,97704.88
2023-04-19T19:38:11.818Z,97700.56
2023-04-19T19:41:22.204Z,97695.41
2023-04-19T19:43:33.478Z,97692.22
2023-04-19T19:46:02.684Z,97687.06
2023-04-19T19:48:39.147Z,97685.81
2023-04-19T19:53:43.153Z,97689.03
2023-04-19T19:56:20.944Z,97692.66
2023-04-19T19:58:51.974Z,97694.59
2023-04-19T20:01:22.469Z,97700.19
2023-04-19T20:03:57.532Z,97707.44
2023-04-19T20:07:21.531Z,97685.41
2023-04-19T20:09:15.994Z,97687.50
2023-04-19T20:11:44.463Z,97690.16
2023-04-19T20:14:12.765Z,97697.13
2023-04-19T20:16:43.899Z,97682.06
2023-04-19T20:19:12.855Z,97688.22
2023-04-19T20:21:42.610Z,97684.72
2023-04-19T20:24:11.771Z,97686.56
2023-04-19T20:26:45.936Z,97690.16
2023-04-19T20:29:14.454Z,97693.78
2023-04-19T20:31:43.711Z,97693.78
2023-04-19T20:34:11.999Z,97702.72
2023-04-19T20:36:41.734Z,97703.66
2023-04-19T20:39:13.038Z,97703.00
2023-04-19T20:41:41.435Z,97693.50
2023-04-19T20:44:12.601Z,97696.28
2023-04-19T20:46:44.286Z,97682.38
2023-04-19T20:49:12.656Z,97683.31
2023-04-19T20:51:42.373Z,97676.50
2023-04-19T20:54:13.558Z,97672.34
2023-04-19T20:56:44.557Z,97668.00
2023-04-19T20:59:12.859Z,97681.50
2023-04-19T21:01:51.542Z,97674.69
2023-04-19T21:04:20.059Z,97675.69
2023-04-19T21:06:49.884Z,97680.13
2023-04-19T21:09:18.392Z,97681.94
2023-04-19T21:11:49.806Z,97680.28
2023-04-19T21:14:18.095Z,97672.34
2023-04-19T21:16:46.473Z,97664.41
2023-04-19T21:19:14.941Z,97657.31
2023-04-19T21:21:43.452Z,97658.13
2023-04-19T21:24:13.079Z,97665.25
2023-04-19T21:26:41.403Z,97663.56
2023-04-19T21:29:12.183Z,97662.16
2023-04-19T21:31:45.646Z,97667.59
2023-04-19T21:34:14.569Z,97663.16
2023-04-19T21:36:47.750Z,97668.44
2023-04-19T21:39:17.532Z,97663.28
2023-04-19T21:41:51.988Z,97662.31
2023-04-19T21:44:22.422Z,97659.81
2023-04-19T21:46:50.700Z,97672.06
2023-04-19T21:49:19.001Z,97669.44
2023-04-19T21:51:55.570Z,97672.88
2023-04-19T21:54:33.374Z,97664.81
2023-04-19T21:57:02.937Z,97659.81
2023-04-19T21:59:31.756Z,97661.22
2023-04-19T22:02:02.225Z,97656.75
2023-04-19T22:04:36.367Z,97655.94
2023-04-19T22:07:05.052Z,97654.94
2023-04-19T22:09:35.289Z,97651.31
2023-04-19T22:12:09.269Z,97656.59
2023-04-19T22:14:37.596Z,97653.94
2023-04-19T22:17:10.133Z,97652.97
2023-04-19T22:19:39.429Z,97644.22
2023-04-19T22:22:10.786Z,97644.22
2023-04-19T22:24:53.854Z,97638.78
2023-04-19T22:27:26.037Z,97636.97
2023-04-19T22:29:54.571Z,97625.56
2023-04-19T22:32:25.816Z,97628.22
2023-04-19T22:34:54.164Z,97626.38
2023-04-19T22:37:22.427Z,97624.56
2023-04-19T22:39:54.974Z,97616.63
2023-04-19T22:42:23.909Z,97621.09
2023-04-19T22:44:52.175Z,97616.63
2023-04-19T22:47:20.489Z,97618.44
2023-04-19T22:49:49.578Z,97616.91
2023-04-19T22:52:17.937Z,97599.25
2023-04-19T22:54:46.797Z,97604.69
2023-04-19T22:57:19.322Z,97610.97
2023-04-19T22:59:47.585Z,97603.97
2023-04-19T23:02:18.545Z,97605.94
2023-04-19T23:04:48.599Z,97608.03
2023-04-19T23:07:19.959Z,97606.66
2023-04-19T23:09:48.404Z,97598.13
2023-04-19T23:12:19.073Z,97611.38
2023-04-19T23:14:48.436Z,97607.06
2023-04-19T23:17:17.159Z,97607.34
2023-04-19T23:19:45.474Z,97604.69
2023-04-19T23:22:17.667Z,97603.00
2023-04-19T23:24:45.976Z,97600.34
2023-04-19T23:27:14.394Z,97597.72
2023-04-19T23:29:44.038Z,97597.03
2023-04-19T23:32:18.349Z,97602.47
2023-04-19T23:34:46.633Z,97594.66
2023-04-19T23:37:14.986Z,97595.63
2023-04-19T23:39:43.240Z,97589.66
2023-04-19T23:42:11.559Z,97587.03
2023-04-19T23:44:42.196Z,97588.81
2023-04-19T23:47:13.079Z,97580.31
2023-04-19T23:49:41.352Z,97565.56
2023-04-19T23:52:12.669Z,97571.00
2023-04-19T23:54:40.977Z,97572.13
2023-04-19T23:57:09.283Z,97566.53
2023-04-19T23:59:37.612Z,97563.50
